sensor_id;sensor_type;location;lat;lon;timestamp;P1;durP1;ratioP1;P2;durP2;ratioP2
12042;SDS011;6082;49.306;12.862;2022-10-16T00:01:23;3.27;;;2.10;;
12042;SDS011;6082;49.306;12.862;2022-10-16T00:03:51;3.97;;;2.50;;
12042;SDS011;6082;49.306;12.862;2022-10-16T00:06:17;3.87;;;2.23;;
12042;SDS011;6082;49.306;12.862;2022-10-16T00:08:45;2.50;;;1.90;;
12042;SDS011;6082;49.306;12.862;2022-10-16T00:13:45;3.13;;;2.13;;
12042;SDS011;6082;49.306;12.862;2022-10-16T00:16:12;3.63;;;2.40;;
12042;SDS011;6082;49.306;12.862;2022-10-16T00:18:39;3.20;;;2.20;;
12042;SDS011;6082;49.306;12.862;2022-10-16T00:21:16;2.70;;;2.13;;
12042;SDS011;6082;49.306;12.862;2022-10-16T00:23:43;3.03;;;2.17;;
12042;SDS011;6082;49.306;12.862;2022-10-16T00:26:11;3.10;;;1.93;;
12042;SDS011;6082;49.306;12.862;2022-10-16T00:28:39;3.10;;;1.97;;
12042;SDS011;6082;49.306;12.862;2022-10-16T00:31:06;2.47;;;1.90;;
12042;SDS011;6082;49.306;12.862;2022-10-16T00:33:33;2.93;;;2.03;;
12042;SDS011;6082;49.306;12.862;2022-10-16T00:36:00;4.80;;;1.97;;
12042;SDS011;6082;49.306;12.862;2022-10-16T00:38:27;5.30;;;2.40;;
12042;SDS011;6082;49.306;12.862;2022-10-16T00:40:53;2.77;;;2.10;;
12042;SDS011;6082;49.306;12.862;2022-10-16T00:46:14;3.97;;;2.47;;
12042;SDS011;6082;49.306;12.862;2022-10-16T00:48:49;2.60;;;2.00;;
12042;SDS011;6082;49.306;12.862;2022-10-16T00:51:40;2.13;;;1.87;;
12042;SDS011;6082;49.306;12.862;2022-10-16T00:54:08;2.87;;;2.20;;
12042;SDS011;6082;49.306;12.862;2022-10-16T00:56:40;2.90;;;1.93;;
12042;SDS011;6082;49.306;12.862;2022-10-16T00:59:09;3.63;;;2.20;;
12042;SDS011;6082;49.306;12.862;2022-10-16T01:01:41;3.67;;;2.30;;
12042;SDS011;6082;49.306;12.862;2022-10-16T01:04:07;3.27;;;2.20;;
12042;SDS011;6082;49.306;12.862;2022-10-16T01:06:36;2.63;;;2.17;;
12042;SDS011;6082;49.306;12.862;2022-10-16T01:14:43;2.63;;;2.20;;
12042;SDS011;6082;49.306;12.862;2022-10-16T01:22:57;3.67;;;2.23;;
12042;SDS011;6082;49.306;12.862;2022-10-16T01:26:04;3.40;;;1.80;;
12042;SDS011;6082;49.306;12.862;2022-10-16T01:29:09;2.23;;;1.77;;
12042;SDS011;6082;49.306;12.862;2022-10-16T01:31:43;2.10;;;1.70;;
12042;SDS011;6082;49.306;12.862;2022-10-16T01:34:20;2.27;;;1.80;;
12042;SDS011;6082;49.306;12.862;2022-10-16T01:37:05;3.13;;;2.20;;
12042;SDS011;6082;49.306;12.862;2022-10-16T01:39:37;2.87;;;2.10;;
12042;SDS011;6082;49.306;12.862;2022-10-16T01:42:13;2.73;;;2.23;;
12042;SDS011;6082;49.306;12.862;2022-10-16T01:44:43;2.43;;;2.23;;
12042;SDS011;6082;49.306;12.862;2022-10-16T01:47:12;3.27;;;2.03;;
12042;SDS011;6082;49.306;12.862;2022-10-16T01:49:39;2.33;;;2.10;;
12042;SDS011;6082;49.306;12.862;2022-10-16T01:52:09;3.40;;;2.20;;
12042;SDS011;6082;49.306;12.862;2022-10-16T01:54:40;4.97;;;2.30;;
12042;SDS011;6082;49.306;12.862;2022-10-16T01:57:08;4.37;;;1.90;;
12042;SDS011;6082;49.306;12.862;2022-10-16T01:59:40;3.97;;;1.97;;
12042;SDS011;6082;49.306;12.862;2022-10-16T02:02:09;2.83;;;1.73;;
12042;SDS011;6082;49.306;12.862;2022-10-16T02:04:44;2.30;;;2.00;;
12042;SDS011;6082;49.306;12.862;2022-10-16T02:07:13;3.13;;;1.77;;
12042;SDS011;6082;49.306;12.862;2022-10-16T02:09:40;3.30;;;2.13;;
12042;SDS011;6082;49.306;12.862;2022-10-16T02:12:08;4.07;;;1.90;;
12042;SDS011;6082;49.306;12.862;2022-10-16T02:14:46;3.47;;;1.70;;
12042;SDS011;6082;49.306;12.862;2022-10-16T02:17:16;2.80;;;2.20;;
12042;SDS011;6082;49.306;12.862;2022-10-16T02:19:42;2.23;;;1.97;;
12042;SDS011;6082;49.306;12.862;2022-10-16T02:22:14;2.17;;;1.60;;
12042;SDS011;6082;49.306;12.862;2022-10-16T02:24:54;3.90;;;1.87;;
12042;SDS011;6082;49.306;12.862;2022-10-16T02:30:21;5.10;;;2.30;;
12042;SDS011;6082;49.306;12.862;2022-10-16T02:32:54;2.37;;;2.10;;
12042;SDS011;6082;49.306;12.862;2022-10-16T02:35:22;2.60;;;1.97;;
12042;SDS011;6082;49.306;12.862;2022-10-16T02:37:49;2.17;;;1.90;;
12042;SDS011;6082;49.306;12.862;2022-10-16T02:40:17;3.43;;;2.10;;
12042;SDS011;6082;49.306;12.862;2022-10-16T02:42:43;3.00;;;1.90;;
12042;SDS011;6082;49.306;12.862;2022-10-16T02:45:09;4.93;;;2.10;;
12042;SDS011;6082;49.306;12.862;2022-10-16T02:47:36;2.47;;;2.00;;
12042;SDS011;6082;49.306;12.862;2022-10-16T02:50:03;1.97;;;1.80;;
12042;SDS011;6082;49.306;12.862;2022-10-16T02:52:29;2.70;;;2.10;;
12042;SDS011;6082;49.306;12.862;2022-10-16T02:54:55;2.37;;;1.87;;
12042;SDS011;6082;49.306;12.862;2022-10-16T02:57:20;3.20;;;1.90;;
12042;SDS011;6082;49.306;12.862;2022-10-16T02:59:46;5.47;;;2.20;;
12042;SDS011;6082;49.306;12.862;2022-10-16T03:02:12;2.90;;;2.13;;
12042;SDS011;6082;49.306;12.862;2022-10-16T03:04:37;4.60;;;2.33;;
12042;SDS011;6082;49.306;12.862;2022-10-16T03:07:03;2.00;;;1.67;;
12042;SDS011;6082;49.306;12.862;2022-10-16T03:09:29;2.73;;;2.23;;
12042;SDS011;6082;49.306;12.862;2022-10-16T03:11:55;2.37;;;2.17;;
12042;SDS011;6082;49.306;12.862;2022-10-16T03:14:21;2.17;;;1.90;;
12042;SDS011;6082;49.306;12.862;2022-10-16T03:16:46;1.80;;;1.60;;
12042;SDS011;6082;49.306;12.862;2022-10-16T03:19:12;2.67;;;1.90;;
12042;SDS011;6082;49.306;12.862;2022-10-16T03:21:38;3.10;;;2.10;;
12042;SDS011;6082;49.306;12.862;2022-10-16T03:24:03;2.83;;;2.23;;
12042;SDS011;6082;49.306;12.862;2022-10-16T03:26:29;5.37;;;2.00;;
12042;SDS011;6082;49.306;12.862;2022-10-16T03:28:55;2.83;;;2.07;;
12042;SDS011;6082;49.306;12.862;2022-10-16T03:31:21;2.50;;;2.00;;
12042;SDS011;6082;49.306;12.862;2022-10-16T03:33:47;1.97;;;1.80;;
12042;SDS011;6082;49.306;12.862;2022-10-16T03:36:12;2.10;;;1.90;;
12042;SDS011;6082;49.306;12.862;2022-10-16T03:38:38;4.20;;;2.10;;
12042;SDS011;6082;49.306;12.862;2022-10-16T03:41:04;3.47;;;2.30;;
12042;SDS011;6082;49.306;12.862;2022-10-16T03:43:30;2.27;;;1.90;;
12042;SDS011;6082;49.306;12.862;2022-10-16T03:45:55;2.53;;;2.17;;
12042;SDS011;6082;49.306;12.862;2022-10-16T03:48:21;4.30;;;2.60;;
12042;SDS011;6082;49.306;12.862;2022-10-16T03:50:47;3.77;;;2.30;;
12042;SDS011;6082;49.306;12.862;2022-10-16T03:53:13;2.07;;;1.80;;
12042;SDS011;6082;49.306;12.862;2022-10-16T03:55:43;2.43;;;2.23;;
12042;SDS011;6082;49.306;12.862;2022-10-16T03:58:10;2.43;;;2.10;;
12042;SDS011;6082;49.306;12.862;2022-10-16T04:00:39;3.13;;;2.30;;
12042;SDS011;6082;49.306;12.862;2022-10-16T04:03:09;2.60;;;2.10;;
12042;SDS011;6082;49.306;12.862;2022-10-16T04:05:35;2.33;;;2.03;;
12042;SDS011;6082;49.306;12.862;2022-10-16T04:08:01;2.87;;;2.10;;
12042;SDS011;6082;49.306;12.862;2022-10-16T04:10:27;2.50;;;2.20;;
12042;SDS011;6082;49.306;12.862;2022-10-16T04:12:52;4.10;;;1.90;;
12042;SDS011;6082;49.306;12.862;2022-10-16T04:15:21;3.37;;;2.30;;
12042;SDS011;6082;49.306;12.862;2022-10-16T04:17:48;4.07;;;2.13;;
12042;SDS011;6082;49.306;12.862;2022-10-16T04:20:13;2.63;;;2.20;;
12042;SDS011;6082;49.306;12.862;2022-10-16T04:22:39;3.87;;;2.13;;
12042;SDS011;6082;49.306;12.862;2022-10-16T04:25:05;3.50;;;2.50;;
12042;SDS011;6082;49.306;12.862;2022-10-16T04:27:31;2.97;;;2.50;;
12042;SDS011;6082;49.306;12.862;2022-10-16T04:29:57;2.70;;;2.10;;
12042;SDS011;6082;49.306;12.862;2022-10-16T04:32:24;2.87;;;2.50;;
12042;SDS011;6082;49.306;12.862;2022-10-16T04:34:50;3.03;;;2.30;;
12042;SDS011;6082;49.306;12.862;2022-10-16T04:37:16;4.73;;;2.37;;
12042;SDS011;6082;49.306;12.862;2022-10-16T04:39:41;2.70;;;2.20;;
12042;SDS011;6082;49.306;12.862;2022-10-16T04:42:07;2.70;;;2.10;;
12042;SDS011;6082;49.306;12.862;2022-10-16T04:44:33;7.00;;;2.60;;
12042;SDS011;6082;49.306;12.862;2022-10-16T04:46:59;3.00;;;2.53;;
12042;SDS011;6082;49.306;12.862;2022-10-16T04:49:24;4.47;;;2.20;;
12042;SDS011;6082;49.306;12.862;2022-10-16T04:51:50;2.40;;;2.10;;
12042;SDS011;6082;49.306;12.862;2022-10-16T04:54:16;2.67;;;2.17;;
12042;SDS011;6082;49.306;12.862;2022-10-16T04:56:41;3.20;;;2.33;;
12042;SDS011;6082;49.306;12.862;2022-10-16T04:59:16;2.70;;;2.20;;
12042;SDS011;6082;49.306;12.862;2022-10-16T05:01:42;3.73;;;2.77;;
12042;SDS011;6082;49.306;12.862;2022-10-16T05:04:09;3.13;;;2.30;;
12042;SDS011;6082;49.306;12.862;2022-10-16T05:06:35;2.90;;;2.40;;
12042;SDS011;6082;49.306;12.862;2022-10-16T05:09:01;2.50;;;2.30;;
12042;SDS011;6082;49.306;12.862;2022-10-16T05:11:27;3.97;;;2.00;;
12042;SDS011;6082;49.306;12.862;2022-10-16T05:13:52;2.53;;;2.27;;
12042;SDS011;6082;49.306;12.862;2022-10-16T05:16:18;4.30;;;2.43;;
12042;SDS011;6082;49.306;12.862;2022-10-16T05:18:44;4.23;;;2.53;;
12042;SDS011;6082;49.306;12.862;2022-10-16T05:21:09;28.97;;;17.50;;
12042;SDS011;6082;49.306;12.862;2022-10-16T05:23:35;28.23;;;17.87;;
12042;SDS011;6082;49.306;12.862;2022-10-16T05:26:01;25.30;;;16.37;;
12042;SDS011;6082;49.306;12.862;2022-10-16T05:28:27;19.20;;;12.53;;
12042;SDS011;6082;49.306;12.862;2022-10-16T05:30:55;14.97;;;11.53;;
12042;SDS011;6082;49.306;12.862;2022-10-16T05:33:22;15.90;;;12.43;;
12042;SDS011;6082;49.306;12.862;2022-10-16T05:35:49;10.10;;;7.97;;
12042;SDS011;6082;49.306;12.862;2022-10-16T05:38:15;8.57;;;6.80;;
12042;SDS011;6082;49.306;12.862;2022-10-16T05:40:42;11.87;;;8.83;;
12042;SDS011;6082;49.306;12.862;2022-10-16T05:43:08;9.93;;;8.13;;
12042;SDS011;6082;49.306;12.862;2022-10-16T05:45:33;6.83;;;5.17;;
12042;SDS011;6082;49.306;12.862;2022-10-16T05:47:59;6.73;;;4.20;;
12042;SDS011;6082;49.306;12.862;2022-10-16T05:50:26;4.70;;;3.90;;
12042;SDS011;6082;49.306;12.862;2022-10-16T05:52:52;3.77;;;3.17;;
12042;SDS011;6082;49.306;12.862;2022-10-16T05:55:18;4.93;;;3.43;;
12042;SDS011;6082;49.306;12.862;2022-10-16T05:57:43;5.50;;;3.77;;
12042;SDS011;6082;49.306;12.862;2022-10-16T06:00:09;3.50;;;3.20;;
12042;SDS011;6082;49.306;12.862;2022-10-16T06:02:35;5.57;;;4.33;;
12042;SDS011;6082;49.306;12.862;2022-10-16T06:05:01;4.53;;;3.70;;
12042;SDS011;6082;49.306;12.862;2022-10-16T06:07:27;4.20;;;3.17;;
12042;SDS011;6082;49.306;12.862;2022-10-16T06:09:52;5.20;;;4.30;;
12042;SDS011;6082;49.306;12.862;2022-10-16T06:12:18;3.90;;;3.30;;
12042;SDS011;6082;49.306;12.862;2022-10-16T06:14:45;3.63;;;2.63;;
12042;SDS011;6082;49.306;12.862;2022-10-16T06:17:14;3.40;;;3.10;;
12042;SDS011;6082;49.306;12.862;2022-10-16T06:19:40;3.60;;;2.60;;
12042;SDS011;6082;49.306;12.862;2022-10-16T06:22:06;9.57;;;7.33;;
12042;SDS011;6082;49.306;12.862;2022-10-16T06:24:32;6.30;;;4.47;;
12042;SDS011;6082;49.306;12.862;2022-10-16T06:26:57;5.20;;;3.90;;
12042;SDS011;6082;49.306;12.862;2022-10-16T06:29:23;5.07;;;4.57;;
12042;SDS011;6082;49.306;12.862;2022-10-16T06:31:49;4.93;;;4.20;;
12042;SDS011;6082;49.306;12.862;2022-10-16T06:34:15;4.77;;;4.10;;
12042;SDS011;6082;49.306;12.862;2022-10-16T06:36:40;3.87;;;3.13;;
12042;SDS011;6082;49.306;12.862;2022-10-16T06:39:08;5.77;;;4.30;;
12042;SDS011;6082;49.306;12.862;2022-10-16T06:41:34;6.93;;;4.70;;
12042;SDS011;6082;49.306;12.862;2022-10-16T06:43:59;4.17;;;3.27;;
12042;SDS011;6082;49.306;12.862;2022-10-16T06:46:26;4.57;;;3.20;;
12042;SDS011;6082;49.306;12.862;2022-10-16T06:48:52;2.97;;;2.57;;
12042;SDS011;6082;49.306;12.862;2022-10-16T06:51:19;8.73;;;3.90;;
12042;SDS011;6082;49.306;12.862;2022-10-16T06:53:47;4.20;;;3.80;;
12042;SDS011;6082;49.306;12.862;2022-10-16T06:56:19;5.77;;;4.63;;
12042;SDS011;6082;49.306;12.862;2022-10-16T06:58:49;8.30;;;5.70;;
12042;SDS011;6082;49.306;12.862;2022-10-16T07:01:16;8.00;;;3.97;;
12042;SDS011;6082;49.306;12.862;2022-10-16T07:03:43;10.17;;;5.73;;
12042;SDS011;6082;49.306;12.862;2022-10-16T07:06:11;13.17;;;9.63;;
12042;SDS011;6082;49.306;12.862;2022-10-16T07:08:39;7.73;;;4.47;;
12042;SDS011;6082;49.306;12.862;2022-10-16T07:11:07;5.87;;;3.57;;
12042;SDS011;6082;49.306;12.862;2022-10-16T07:13:38;4.13;;;3.10;;
12042;SDS011;6082;49.306;12.862;2022-10-16T07:16:10;4.10;;;2.77;;
12042;SDS011;6082;49.306;12.862;2022-10-16T07:18:37;3.03;;;2.60;;
12042;SDS011;6082;49.306;12.862;2022-10-16T07:21:11;3.03;;;2.57;;
12042;SDS011;6082;49.306;12.862;2022-10-16T07:23:39;5.83;;;3.53;;
12042;SDS011;6082;49.306;12.862;2022-10-16T07:26:05;4.43;;;2.70;;
12042;SDS011;6082;49.306;12.862;2022-10-16T07:28:32;2.20;;;2.00;;
12042;SDS011;6082;49.306;12.862;2022-10-16T07:31:05;2.23;;;1.90;;
12042;SDS011;6082;49.306;12.862;2022-10-16T07:33:33;2.80;;;1.93;;
12042;SDS011;6082;49.306;12.862;2022-10-16T07:36:00;2.17;;;1.90;;
12042;SDS011;6082;49.306;12.862;2022-10-16T07:38:26;2.13;;;1.50;;
12042;SDS011;6082;49.306;12.862;2022-10-16T07:40:58;2.60;;;2.10;;
12042;SDS011;6082;49.306;12.862;2022-10-16T07:43:28;2.90;;;2.33;;
12042;SDS011;6082;49.306;12.862;2022-10-16T07:45:54;2.80;;;2.27;;
12042;SDS011;6082;49.306;12.862;2022-10-16T07:48:20;4.10;;;3.13;;
12042;SDS011;6082;49.306;12.862;2022-10-16T07:50:46;4.60;;;3.13;;
12042;SDS011;6082;49.306;12.862;2022-10-16T07:53:12;3.87;;;2.40;;
12042;SDS011;6082;49.306;12.862;2022-10-16T07:55:38;5.20;;;2.70;;
12042;SDS011;6082;49.306;12.862;2022-10-16T07:58:04;3.40;;;2.63;;
12042;SDS011;6082;49.306;12.862;2022-10-16T08:00:30;4.10;;;2.57;;
12042;SDS011;6082;49.306;12.862;2022-10-16T08:02:57;2.63;;;2.27;;
12042;SDS011;6082;49.306;12.862;2022-10-16T08:05:26;5.27;;;3.50;;
12042;SDS011;6082;49.306;12.862;2022-10-16T08:07:53;4.90;;;3.67;;
12042;SDS011;6082;49.306;12.862;2022-10-16T08:10:20;6.00;;;3.20;;
12042;SDS011;6082;49.306;12.862;2022-10-16T08:12:47;5.37;;;4.10;;
12042;SDS011;6082;49.306;12.862;2022-10-16T08:15:12;8.40;;;5.60;;
12042;SDS011;6082;49.306;12.862;2022-10-16T08:17:38;3.90;;;3.07;;
12042;SDS011;6082;49.306;12.862;2022-10-16T08:20:04;6.07;;;3.90;;
12042;SDS011;6082;49.306;12.862;2022-10-16T08:22:30;6.20;;;3.33;;
12042;SDS011;6082;49.306;12.862;2022-10-16T08:24:56;7.40;;;4.20;;
12042;SDS011;6082;49.306;12.862;2022-10-16T08:27:22;7.90;;;4.60;;
12042;SDS011;6082;49.306;12.862;2022-10-16T08:29:51;12.47;;;5.13;;
12042;SDS011;6082;49.306;12.862;2022-10-16T08:32:16;10.87;;;7.50;;
12042;SDS011;6082;49.306;12.862;2022-10-16T08:34:42;5.63;;;3.70;;
12042;SDS011;6082;49.306;12.862;2022-10-16T08:37:08;10.23;;;5.73;;
12042;SDS011;6082;49.306;12.862;2022-10-16T08:39:36;8.10;;;4.23;;
12042;SDS011;6082;49.306;12.862;2022-10-16T08:42:08;9.63;;;4.07;;
12042;SDS011;6082;49.306;12.862;2022-10-16T08:47:45;4.80;;;3.30;;
12042;SDS011;6082;49.306;12.862;2022-10-16T08:50:21;4.60;;;3.57;;
12042;SDS011;6082;49.306;12.862;2022-10-16T08:52:55;6.80;;;4.23;;
12042;SDS011;6082;49.306;12.862;2022-10-16T08:58:18;7.70;;;4.97;;
12042;SDS011;6082;49.306;12.862;2022-10-16T09:00:55;11.47;;;6.60;;
12042;SDS011;6082;49.306;12.862;2022-10-16T09:06:17;7.43;;;4.27;;
12042;SDS011;6082;49.306;12.862;2022-10-16T09:16:44;3.13;;;1.90;;
12042;SDS011;6082;49.306;12.862;2022-10-16T09:21:55;2.60;;;2.00;;
12042;SDS011;6082;49.306;12.862;2022-10-16T09:24:25;5.17;;;1.97;;
12042;SDS011;6082;49.306;12.862;2022-10-16T09:26:51;2.93;;;1.80;;
12042;SDS011;6082;49.306;12.862;2022-10-16T09:29:17;2.27;;;1.80;;
12042;SDS011;6082;49.306;12.862;2022-10-16T09:31:45;2.00;;;1.60;;
12042;SDS011;6082;49.306;12.862;2022-10-16T09:34:17;2.23;;;1.80;;
12042;SDS011;6082;49.306;12.862;2022-10-16T09:36:53;3.07;;;1.80;;
12042;SDS011;6082;49.306;12.862;2022-10-16T09:39:21;4.70;;;2.13;;
12042;SDS011;6082;49.306;12.862;2022-10-16T09:41:46;2.20;;;1.93;;
12042;SDS011;6082;49.306;12.862;2022-10-16T09:44:16;1.97;;;1.53;;
12042;SDS011;6082;49.306;12.862;2022-10-16T09:46:43;1.87;;;1.60;;
12042;SDS011;6082;49.306;12.862;2022-10-16T09:51:48;3.10;;;2.00;;
12042;SDS011;6082;49.306;12.862;2022-10-16T09:54:19;2.03;;;1.70;;
12042;SDS011;6082;49.306;12.862;2022-10-16T09:56:46;2.60;;;1.50;;
12042;SDS011;6082;49.306;12.862;2022-10-16T09:59:21;1.97;;;1.77;;
12042;SDS011;6082;49.306;12.862;2022-10-16T10:01:53;2.20;;;1.57;;
12042;SDS011;6082;49.306;12.862;2022-10-16T10:04:20;2.20;;;1.80;;
12042;SDS011;6082;49.306;12.862;2022-10-16T10:12:02;2.27;;;1.50;;
12042;SDS011;6082;49.306;12.862;2022-10-16T10:14:36;2.80;;;1.70;;
12042;SDS011;6082;49.306;12.862;2022-10-16T10:20:15;2.20;;;1.50;;
12042;SDS011;6082;49.306;12.862;2022-10-16T10:22:42;1.43;;;1.20;;
12042;SDS011;6082;49.306;12.862;2022-10-16T10:27:44;1.20;;;1.10;;
12042;SDS011;6082;49.306;12.862;2022-10-16T10:36:16;2.40;;;0.90;;
12042;SDS011;6082;49.306;12.862;2022-10-16T10:52:51;1.60;;;1.10;;
12042;SDS011;6082;49.306;12.862;2022-10-16T11:00:53;1.73;;;1.10;;
12042;SDS011;6082;49.306;12.862;2022-10-16T11:09:11;1.67;;;1.00;;
12042;SDS011;6082;49.306;12.862;2022-10-16T11:11:49;1.93;;;1.20;;
12042;SDS011;6082;49.306;12.862;2022-10-16T11:14:28;0.87;;;0.80;;
12042;SDS011;6082;49.306;12.862;2022-10-16T11:31:03;1.23;;;0.90;;
12042;SDS011;6082;49.306;12.862;2022-10-16T11:33:30;0.93;;;0.83;;
12042;SDS011;6082;49.306;12.862;2022-10-16T11:36:23;0.90;;;0.80;;
12042;SDS011;6082;49.306;12.862;2022-10-16T11:46:42;0.80;;;0.80;;
12042;SDS011;6082;49.306;12.862;2022-10-16T11:49:15;1.10;;;0.80;;
12042;SDS011;6082;49.306;12.862;2022-10-16T11:54:47;1.30;;;1.00;;
12042;SDS011;6082;49.306;12.862;2022-10-16T11:57:23;1.50;;;1.10;;
12042;SDS011;6082;49.306;12.862;2022-10-16T11:59:58;1.00;;;0.80;;
12042;SDS011;6082;49.306;12.862;2022-10-16T12:05:23;0.70;;;0.60;;
12042;SDS011;6082;49.306;12.862;2022-10-16T12:10:24;0.80;;;0.80;;
12042;SDS011;6082;49.306;12.862;2022-10-16T12:12:52;1.13;;;0.60;;
12042;SDS011;6082;49.306;12.862;2022-10-16T12:17:47;0.70;;;0.70;;
12042;SDS011;6082;49.306;12.862;2022-10-16T12:23:03;0.83;;;0.83;;
12042;SDS011;6082;49.306;12.862;2022-10-16T12:25:30;0.63;;;0.60;;
12042;SDS011;6082;49.306;12.862;2022-10-16T12:28:04;0.73;;;0.73;;
12042;SDS011;6082;49.306;12.862;2022-10-16T12:30:42;2.03;;;0.70;;
12042;SDS011;6082;49.306;12.862;2022-10-16T12:33:27;1.63;;;0.70;;
12042;SDS011;6082;49.306;12.862;2022-10-16T12:35:54;0.60;;;0.60;;
12042;SDS011;6082;49.306;12.862;2022-10-16T12:38:25;0.77;;;0.70;;
12042;SDS011;6082;49.306;12.862;2022-10-16T12:41:10;1.17;;;0.60;;
12042;SDS011;6082;49.306;12.862;2022-10-16T12:43:41;0.53;;;0.50;;
12042;SDS011;6082;49.306;12.862;2022-10-16T12:48:34;0.70;;;0.60;;
12042;SDS011;6082;49.306;12.862;2022-10-16T12:53:45;0.53;;;0.50;;
12042;SDS011;6082;49.306;12.862;2022-10-16T13:01:25;1.03;;;0.63;;
12042;SDS011;6082;49.306;12.862;2022-10-16T13:07:13;0.60;;;0.60;;
12042;SDS011;6082;49.306;12.862;2022-10-16T13:18:04;1.60;;;0.97;;
12042;SDS011;6082;49.306;12.862;2022-10-16T13:20:46;1.40;;;0.70;;
12042;SDS011;6082;49.306;12.862;2022-10-16T13:28:51;0.87;;;0.60;;
12042;SDS011;6082;49.306;12.862;2022-10-16T13:31:21;0.60;;;0.60;;
12042;SDS011;6082;49.306;12.862;2022-10-16T13:33:52;0.93;;;0.70;;
12042;SDS011;6082;49.306;12.862;2022-10-16T13:36:43;0.80;;;0.80;;
12042;SDS011;6082;49.306;12.862;2022-10-16T13:39:13;0.60;;;0.60;;
12042;SDS011;6082;49.306;12.862;2022-10-16T13:41:43;0.47;;;0.47;;
12042;SDS011;6082;49.306;12.862;2022-10-16T13:44:18;0.50;;;0.50;;
12042;SDS011;6082;49.306;12.862;2022-10-16T13:46:45;0.77;;;0.70;;
12042;SDS011;6082;49.306;12.862;2022-10-16T13:49:13;0.97;;;0.70;;
12042;SDS011;6082;49.306;12.862;2022-10-16T13:51:41;0.63;;;0.53;;
12042;SDS011;6082;49.306;12.862;2022-10-16T13:54:18;0.80;;;0.70;;
12042;SDS011;6082;49.306;12.862;2022-10-16T13:56:43;0.80;;;0.70;;
12042;SDS011;6082;49.306;12.862;2022-10-16T13:59:25;1.00;;;0.90;;
12042;SDS011;6082;49.306;12.862;2022-10-16T14:05:00;0.73;;;0.60;;
12042;SDS011;6082;49.306;12.862;2022-10-16T14:07:30;1.47;;;0.80;;
12042;SDS011;6082;49.306;12.862;2022-10-16T14:09:59;0.73;;;0.73;;
12042;SDS011;6082;49.306;12.862;2022-10-16T14:12:28;1.00;;;0.90;;
12042;SDS011;6082;49.306;12.862;2022-10-16T14:14:55;1.10;;;0.80;;
12042;SDS011;6082;49.306;12.862;2022-10-16T14:17:26;1.10;;;1.00;;
12042;SDS011;6082;49.306;12.862;2022-10-16T14:19:58;1.07;;;0.83;;
12042;SDS011;6082;49.306;12.862;2022-10-16T14:24:57;1.63;;;0.80;;
12042;SDS011;6082;49.306;12.862;2022-10-16T14:32:52;1.27;;;1.10;;
12042;SDS011;6082;49.306;12.862;2022-10-16T14:35:38;1.00;;;0.90;;
12042;SDS011;6082;49.306;12.862;2022-10-16T14:38:05;1.63;;;1.30;;
12042;SDS011;6082;49.306;12.862;2022-10-16T14:40:45;1.10;;;1.00;;
12042;SDS011;6082;49.306;12.862;2022-10-16T14:43:20;1.10;;;1.00;;
12042;SDS011;6082;49.306;12.862;2022-10-16T14:45:54;1.30;;;1.17;;
12042;SDS011;6082;49.306;12.862;2022-10-16T14:48:22;1.90;;;1.70;;
12042;SDS011;6082;49.306;12.862;2022-10-16T14:50:48;1.53;;;1.43;;
12042;SDS011;6082;49.306;12.862;2022-10-16T14:53:15;2.07;;;1.10;;
12042;SDS011;6082;49.306;12.862;2022-10-16T14:55:41;3.73;;;3.43;;
12042;SDS011;6082;49.306;12.862;2022-10-16T14:58:21;3.43;;;2.90;;
12042;SDS011;6082;49.306;12.862;2022-10-16T15:00:48;5.27;;;3.77;;
12042;SDS011;6082;49.306;12.862;2022-10-16T15:03:14;1.80;;;1.50;;
12042;SDS011;6082;49.306;12.862;2022-10-16T15:05:40;2.20;;;1.70;;
12042;SDS011;6082;49.306;12.862;2022-10-16T15:08:06;1.57;;;1.20;;
12042;SDS011;6082;49.306;12.862;2022-10-16T15:10:33;4.37;;;2.37;;
12042;SDS011;6082;49.306;12.862;2022-10-16T15:13:04;3.20;;;2.30;;
12042;SDS011;6082;49.306;12.862;2022-10-16T15:15:34;3.17;;;1.90;;
12042;SDS011;6082;49.306;12.862;2022-10-16T15:18:02;3.00;;;1.77;;
12042;SDS011;6082;49.306;12.862;2022-10-16T15:20:38;2.50;;;1.90;;
12042;SDS011;6082;49.306;12.862;2022-10-16T15:23:05;1.63;;;1.43;;
12042;SDS011;6082;49.306;12.862;2022-10-16T15:25:41;1.83;;;1.67;;
12042;SDS011;6082;49.306;12.862;2022-10-16T15:28:09;2.37;;;1.93;;
12042;SDS011;6082;49.306;12.862;2022-10-16T15:30:36;1.93;;;1.53;;
12042;SDS011;6082;49.306;12.862;2022-10-16T15:33:03;3.20;;;1.40;;
12042;SDS011;6082;49.306;12.862;2022-10-16T15:35:30;1.63;;;1.40;;
12042;SDS011;6082;49.306;12.862;2022-10-16T15:37:56;1.80;;;1.47;;
12042;SDS011;6082;49.306;12.862;2022-10-16T15:40:23;1.97;;;1.30;;
12042;SDS011;6082;49.306;12.862;2022-10-16T15:42:49;2.73;;;1.40;;
12042;SDS011;6082;49.306;12.862;2022-10-16T15:45:15;1.80;;;1.60;;
12042;SDS011;6082;49.306;12.862;2022-10-16T15:47:41;1.53;;;1.43;;
12042;SDS011;6082;49.306;12.862;2022-10-16T15:50:09;6.83;;;3.37;;
12042;SDS011;6082;49.306;12.862;2022-10-16T15:52:36;9.37;;;6.27;;
12042;SDS011;6082;49.306;12.862;2022-10-16T15:55:04;6.00;;;4.07;;
12042;SDS011;6082;49.306;12.862;2022-10-16T15:57:34;3.57;;;2.83;;
12042;SDS011;6082;49.306;12.862;2022-10-16T16:00:03;4.93;;;2.50;;
12042;SDS011;6082;49.306;12.862;2022-10-16T16:02:33;3.53;;;2.60;;
12042;SDS011;6082;49.306;12.862;2022-10-16T16:04:58;2.53;;;2.00;;
12042;SDS011;6082;49.306;12.862;2022-10-16T16:07:24;5.07;;;2.60;;
12042;SDS011;6082;49.306;12.862;2022-10-16T16:09:50;3.00;;;2.33;;
12042;SDS011;6082;49.306;12.862;2022-10-16T16:12:15;5.37;;;2.70;;
12042;SDS011;6082;49.306;12.862;2022-10-16T16:14:41;3.07;;;2.30;;
12042;SDS011;6082;49.306;12.862;2022-10-16T16:17:11;2.80;;;2.30;;
12042;SDS011;6082;49.306;12.862;2022-10-16T16:19:37;3.03;;;2.50;;
12042;SDS011;6082;49.306;12.862;2022-10-16T16:22:02;6.00;;;2.37;;
12042;SDS011;6082;49.306;12.862;2022-10-16T16:24:28;3.57;;;2.03;;
12042;SDS011;6082;49.306;12.862;2022-10-16T16:26:54;3.00;;;2.07;;
12042;SDS011;6082;49.306;12.862;2022-10-16T16:29:19;2.70;;;2.20;;
12042;SDS011;6082;49.306;12.862;2022-10-16T16:31:45;4.13;;;2.10;;
12042;SDS011;6082;49.306;12.862;2022-10-16T16:34:12;2.50;;;1.93;;
12042;SDS011;6082;49.306;12.862;2022-10-16T16:36:38;2.27;;;2.00;;
12042;SDS011;6082;49.306;12.862;2022-10-16T16:39:05;3.63;;;2.53;;
12042;SDS011;6082;49.306;12.862;2022-10-16T16:41:31;3.93;;;2.60;;
12042;SDS011;6082;49.306;12.862;2022-10-16T16:44:02;4.77;;;2.70;;
12042;SDS011;6082;49.306;12.862;2022-10-16T16:46:32;2.97;;;2.47;;
12042;SDS011;6082;49.306;12.862;2022-10-16T16:48:59;2.40;;;1.93;;
12042;SDS011;6082;49.306;12.862;2022-10-16T16:51:25;2.53;;;2.00;;
12042;SDS011;6082;49.306;12.862;2022-10-16T16:53:53;3.30;;;2.10;;
12042;SDS011;6082;49.306;12.862;2022-10-16T16:56:20;2.27;;;1.80;;
12042;SDS011;6082;49.306;12.862;2022-10-16T16:58:47;2.17;;;1.60;;
12042;SDS011;6082;49.306;12.862;2022-10-16T17:01:14;3.43;;;1.80;;
12042;SDS011;6082;49.306;12.862;2022-10-16T17:03:41;2.63;;;1.90;;
12042;SDS011;6082;49.306;12.862;2022-10-16T17:06:11;1.80;;;1.60;;
12042;SDS011;6082;49.306;12.862;2022-10-16T17:08:39;2.27;;;1.70;;
12042;SDS011;6082;49.306;12.862;2022-10-16T17:11:06;4.17;;;2.43;;
12042;SDS011;6082;49.306;12.862;2022-10-16T17:13:37;4.43;;;1.87;;
12042;SDS011;6082;49.306;12.862;2022-10-16T17:16:04;3.07;;;2.20;;
12042;SDS011;6082;49.306;12.862;2022-10-16T17:18:30;3.63;;;2.10;;
12042;SDS011;6082;49.306;12.862;2022-10-16T17:21:03;3.87;;;2.77;;
12042;SDS011;6082;49.306;12.862;2022-10-16T17:23:34;3.77;;;2.40;;
12042;SDS011;6082;49.306;12.862;2022-10-16T17:26:08;3.67;;;2.47;;
12042;SDS011;6082;49.306;12.862;2022-10-16T17:28:36;3.50;;;2.40;;
12042;SDS011;6082;49.306;12.862;2022-10-16T17:31:06;4.53;;;2.50;;
12042;SDS011;6082;49.306;12.862;2022-10-16T17:33:33;49.13;;;17.23;;
12042;SDS011;6082;49.306;12.862;2022-10-16T17:35:59;229.73;;;72.77;;